Time;durP1;ratioP1;P1;durP2;ratioP2;P2;SDS_P1;SDS_P2;PMS_P1;PMS_P2;Temp;Humidity;BMP_temperature;BMP_pressure;BME280_temperature;BME280_humidity;BME280_pressure;Samples;Min_cycle;Max_cycle;Signal;HPM_P1;HPM_P2
2021/03/07 00:01:50;;;;;;;7.97;3.20;;;;;;;4.10;94.81;101918.56;5218398;28;20117;-77
2021/03/07 00:04:20;;;;;;;9.25;3.53;;;;;;;4.03;95.30;101909.88;5216841;28;20557;-77
2021/03/07 00:06:51;;;;;;;7.57;3.80;;;;;;;4.00;96.50;101907.25;5213903;28;20025;-77
2021/03/07 00:09:21;;;;;;;11.38;4.57;;;;;;;4.02;96.34;101900.38;5220256;28;20028;-77
2021/03/07 00:11:51;;;;;;;10.23;4.88;;;;;;;3.96;96.95;101908.03;5231524;28;20071;-77
2021/03/07 00:14:21;;;;;;;10.30;4.85;;;;;;;3.94;97.76;101896.81;5226406;28;20131;-77
2021/03/07 00:16:52;;;;;;;12.82;5.30;;;;;;;3.85;99.01;101901.88;5221444;28;20091;-76
2021/03/07 00:19:22;;;;;;;12.75;5.28;;;;;;;3.77;99.12;101898.31;5220531;28;20025;-76
2021/03/07 00:21:52;;;;;;;9.73;5.43;;;;;;;3.78;100.00;101905.22;5227139;28;20383;-76
2021/03/07 00:24:23;;;;;;;11.75;5.63;;;;;;;3.77;99.71;101903.50;5228086;28;20107;-76
2021/03/07 00:26:53;;;;;;;12.40;5.57;;;;;;;3.79;99.74;101896.63;5228561;28;20025;-77
2021/03/07 00:29:23;;;;;;;14.93;6.10;;;;;;;3.78;99.60;101892.31;5238411;28;20020;-77
2021/03/07 00:31:54;;;;;;;10.45;5.72;;;;;;;3.74;100.00;101898.28;5234236;28;20027;-77
2021/03/07 00:34:24;;;;;;;10.10;5.57;;;;;;;3.68;99.88;101893.06;5240791;28;20025;-77
2021/03/07 00:36:55;;;;;;;11.70;6.00;;;;;;;3.67;100.00;101888.72;5225067;28;20045;-77
2021/03/07 00:39:25;;;;;;;10.93;6.00;;;;;;;3.64;100.00;101883.50;5224928;28;20049;-77
2021/03/07 00:42:00;;;;;;;9.52;5.38;;;;;;;3.64;100.00;101886.06;5232829;28;20078;-77
2021/03/07 00:44:30;;;;;;;10.02;5.93;;;;;;;3.85;99.18;101888.97;5241125;28;20062;-77
2021/03/07 00:47:01;;;;;;;10.40;6.15;;;;;;;3.72;99.56;101883.59;5245645;28;20120;-77
2021/03/07 00:49:32;;;;;;;11.82;6.15;;;;;;;3.85;98.47;101881.22;5213945;28;20108;-77
2021/03/07 00:52:03;;;;;;;12.18;7.00;;;;;;;3.71;99.97;101882.75;5215692;28;20079;-77
2021/03/07 00:54:33;;;;;;;13.85;7.20;;;;;;;3.67;99.82;101870.63;5221762;28;20453;-77
2021/03/07 00:57:04;;;;;;;10.85;6.20;;;;;;;3.71;100.00;101868.94;5212613;28;20017;-77
2021/03/07 00:59:34;;;;;;;11.18;6.55;;;;;;;3.58;100.00;101866.19;5211861;28;20279;-77
2021/03/07 01:02:05;;;;;;;12.80;6.47;;;;;;;3.56;100.00;101870.47;5214612;28;20494;-77
2021/03/07 01:04:35;;;;;;;12.52;6.88;;;;;;;3.52;100.00;101863.53;5222116;28;20112;-77
2021/03/07 01:07:05;;;;;;;12.68;7.18;;;;;;;3.60;100.00;101855.03;5213142;28;20029;-77
2021/03/07 01:09:35;;;;;;;11.38;7.28;;;;;;;3.51;100.00;101856.63;5214599;28;20028;-77
2021/03/07 01:12:06;;;;;;;12.70;7.25;;;;;;;3.47;100.00;101853.13;5232602;28;20548;-77
2021/03/07 01:14:37;;;;;;;14.63;7.63;;;;;;;3.44;100.00;101859.97;5223154;28;20474;-77
2021/03/07 01:17:07;;;;;;;13.80;7.97;;;;;;;3.46;100.00;101845.34;5220430;28;20022;-77
2021/03/07 01:19:37;;;;;;;10.73;7.30;;;;;;;3.48;100.00;101841.06;5218809;28;20025;-77
2021/03/07 01:22:08;;;;;;;13.68;7.25;;;;;;;3.57;100.00;101843.78;5223895;28;20429;-77
2021/03/07 01:24:39;;;;;;;13.02;7.30;;;;;;;3.54;100.00;101835.97;5223781;28;20029;-77
2021/03/07 01:27:09;;;;;;;11.30;7.35;;;;;;;3.55;100.00;101837.72;5223982;28;20390;-77
2021/03/07 01:29:39;;;;;;;11.23;7.20;;;;;;;3.60;100.00;101829.19;5223779;28;20088;-77
2021/03/07 01:32:10;;;;;;;13.10;7.43;;;;;;;3.53;100.00;101829.94;5227030;28;20474;-77
2021/03/07 01:34:40;;;;;;;10.50;7.45;;;;;;;3.65;100.00;101824.94;5227407;28;20033;-77
2021/03/07 01:37:10;;;;;;;11.57;7.00;;;;;;;3.58;100.00;101823.13;5228493;28;20032;-77
2021/03/07 01:39:40;;;;;;;14.38;7.03;;;;;;;3.64;100.00;101823.19;5223708;28;20031;-77
2021/03/07 01:42:11;;;;;;;11.77;7.03;;;;;;;3.68;100.00;101814.63;5238168;28;20068;-76
2021/03/07 01:44:42;;;;;;;13.43;6.82;;;;;;;3.88;100.00;101821.75;5234537;28;20098;-76
2021/03/07 01:47:16;;;;;;;11.20;6.70;;;;;;;3.93;100.00;101820.09;5205508;28;20033;-76
2021/03/07 01:49:47;;;;;;;16.02;6.68;;;;;;;3.73;100.00;101816.41;5223802;28;20104;-77
2021/03/07 01:52:17;;;;;;;10.02;6.97;;;;;;;3.65;100.00;101810.28;5222481;28;20108;-76
2021/03/07 01:54:47;;;;;;;15.77;6.97;;;;;;;3.67;100.00;101808.59;5211129;28;20122;-76
2021/03/07 01:57:21;;;;;;;10.80;7.10;;;;;;;3.85;100.00;101805.34;5215339;28;20119;-76
2021/03/07 01:59:53;;;;;;;13.07;6.72;;;;;;;3.75;100.00;101794.03;5223827;28;20020;-77
2021/03/07 02:02:23;;;;;;;13.57;7.25;;;;;;;3.70;100.00;101794.81;5219137;28;20021;-76
2021/03/07 02:04:54;;;;;;;12.02;6.80;;;;;;;3.81;100.00;101791.50;5215625;28;20032;-77
2021/03/07 02:07:24;;;;;;;12.57;6.70;;;;;;;4.06;100.00;101796.09;5220502;28;20103;-76
2021/03/07 02:09:55;;;;;;;12.95;6.88;;;;;;;3.84;100.00;101788.97;5217836;28;20406;-77
2021/03/07 02:12:27;;;;;;;14.38;6.80;;;;;;;3.95;99.91;101789.94;5221523;28;20500;-77
2021/03/07 02:14:58;;;;;;;11.60;6.97;;;;;;;3.98;100.00;101773.59;5217614;28;20425;-77
2021/03/07 02:17:28;;;;;;;13.45;6.88;;;;;;;3.90;100.00;101773.53;5211331;28;20597;-77
2021/03/07 02:19:59;;;;;;;11.45;7.40;;;;;;;3.77;100.00;101774.22;5216681;28;20021;-76
2021/03/07 02:22:40;;;;;;;16.15;7.10;;;;;;;3.84;100.00;101767.41;5217865;28;20629;-77
2021/03/07 02:25:13;;;;;;;12.30;6.75;;;;;;;3.88;99.68;101757.13;5216387;28;20029;-77
2021/03/07 02:27:45;;;;;;;12.40;6.80;;;;;;;3.85;100.00;101757.09;5215873;28;20029;-76
2021/03/07 02:30:16;;;;;;;11.57;6.30;;;;;;;3.87;100.00;101755.41;5214303;28;20021;-76
2021/03/07 02:32:54;;;;;;;13.68;6.90;;;;;;;3.90;99.69;101755.41;5211092;28;20088;-76
2021/03/07 02:35:28;;;;;;;11.40;6.32;;;;;;;3.91;100.00;101757.16;5211254;28;20017;-76
2021/03/07 02:38:01;;;;;;;12.20;6.10;;;;;;;3.74;100.00;101747.47;5211382;28;20045;-77
2021/03/07 02:40:35;;;;;;;12.65;5.45;;;;;;;3.82;98.22;101751.88;5215415;28;20478;-76
2021/03/07 02:43:10;;;;;;;8.35;5.10;;;;;;;3.77;97.07;101744.94;5221109;28;20031;-76
2021/03/07 02:45:42;;;;;;;8.68;4.28;;;;;;;3.70;97.78;101740.53;5206775;28;20048;-77
2021/03/07 02:48:19;;;;;;;11.50;4.30;;;;;;;3.84;95.47;101742.44;5221583;28;20033;-76
2021/03/07 02:50:51;;;;;;;7.43;3.08;;;;;;;3.90;93.45;101744.19;5222353;28;20484;-76
2021/03/07 02:53:24;;;;;;;9.88;2.95;;;;;;;3.86;92.27;101745.91;5223862;28;20116;-76
2021/03/07 02:55:59;;;;;;;8.82;3.60;;;;;;;4.01;92.17;101740.88;5220782;28;20009;-76
2021/03/07 02:58:36;;;;;;;7.78;3.20;;;;;;;3.84;92.21;101733.81;5221632;28;20432;-77
2021/03/07 03:01:11;;;;;;;9.52;3.83;;;;;;;3.88;92.27;101733.84;5222171;28;20597;-76
2021/03/07 03:03:43;;;;;;;7.72;3.58;;;;;;;3.94;92.75;101736.50;5219782;28;20025;-77
2021/03/07 03:06:16;;;;;;;10.35;4.05;;;;;;;3.82;92.99;101720.84;5220387;28;20104;-77
2021/03/07 03:08:55;;;;;;;8.57;3.63;;;;;;;3.72;93.63;101719.03;5213471;28;20052;-77
2021/03/07 03:11:31;;;;;;;9.93;4.10;;;;;;;3.86;93.75;101717.47;5216439;28;20052;-76
2021/03/07 03:14:03;;;;;;;10.45;3.75;;;;;;;3.87;93.96;101719.19;5233179;28;20130;-77
2021/03/07 03:16:34;;;;;;;7.32;4.07;;;;;;;3.82;94.20;101718.25;5242906;28;20020;-77
2021/03/07 03:19:07;;;;;;;10.35;3.83;;;;;;;3.85;93.99;101713.16;5235478;28;20027;-77
2021/03/07 03:21:38;;;;;;;8.38;3.40;;;;;;;3.76;93.05;101718.22;5222227;28;20024;-77
2021/03/07 03:24:10;;;;;;;7.43;3.30;;;;;;;3.86;91.98;101721.75;5220843;28;20284;-77
2021/03/07 03:26:40;;;;;;;6.93;2.33;;;;;;;3.72;90.26;101723.31;5221764;28;20493;-76
2021/03/07 03:29:11;;;;;;;6.63;2.00;;;;;;;3.61;89.49;101720.63;5222734;28;20108;-77
2021/03/07 03:31:41;;;;;;;5.43;2.17;;;;;;;3.58;89.38;101718.88;5221942;28;20021;-77
2021/03/07 03:34:11;;;;;;;5.95;1.92;;;;;;;3.58;88.79;101706.84;5203644;28;20017;-77
2021/03/07 03:36:42;;;;;;;10.23;2.30;;;;;;;3.63;88.47;101715.50;5221711;28;20029;-77
2021/03/07 03:39:21;;;;;;;9.27;1.90;;;;;;;3.58;87.98;101708.53;5221939;28;20035;-77
2021/03/07 03:41:54;;;;;;;3.92;1.70;;;;;;;3.60;88.22;101703.41;5231734;28;20037;-76
2021/03/07 03:44:29;;;;;;;7.32;2.10;;;;;;;3.43;88.26;101713.53;5232437;28;20552;-77
2021/03/07 03:46:59;;;;;;;5.30;2.10;;;;;;;3.49;88.99;101714.47;5242468;28;20485;-77
2021/03/07 03:49:48;;;;;;;4.90;1.92;;;;;;;3.50;88.32;101707.59;5242386;28;20080;-77
2021/03/07 03:52:21;;;;;;;3.90;1.80;;;;;;;3.52;88.34;101706.75;5242513;28;20440;-77
2021/03/07 03:55:08;;;;;;;10.40;1.90;;;;;;;3.54;88.31;101707.63;5239644;28;20150;-77
2021/03/07 03:57:40;;;;;;;5.35;1.90;;;;;;;3.58;87.58;101703.38;5221333;28;20489;-77
2021/03/07 04:00:15;;;;;;;6.18;1.80;;;;;;;3.50;87.21;101699.84;5237613;28;20067;-77
2021/03/07 04:02:46;;;;;;;;;;;;;;;3.49;87.81;101700.66;5226463;28;20025;-77
2021/03/07 04:05:19;;;;;;;7.45;2.05;;;;;;;3.64;86.79;101706.88;5225204;28;19912;-77
2021/03/07 04:07:50;;;;;;;6.18;1.90;;;;;;;3.55;86.25;101699.03;5225461;28;20104;-77
2021/03/07 04:10:22;;;;;;;10.43;1.90;;;;;;;3.49;86.62;101704.13;5228773;28;20027;-77
2021/03/07 04:12:58;;;;;;;6.95;1.88;;;;;;;3.63;86.83;101698.25;5237034;28;20045;-77
2021/03/07 04:15:29;;;;;;;7.78;2.00;;;;;;;3.61;86.31;101693.94;5225846;28;20025;-77
2021/03/07 04:18:01;;;;;;;8.45;1.92;;;;;;;3.58;86.86;101696.50;5225357;28;20656;-77
2021/03/07 04:20:32;;;;;;;8.50;2.20;;;;;;;3.51;86.88;101697.25;5224650;28;20040;-77
2021/03/07 04:23:02;;;;;;;9.88;1.85;;;;;;;3.59;86.93;101701.66;5224783;28;20083;-76
2021/03/07 04:25:32;;;;;;;5.32;2.10;;;;;;;3.46;87.16;101695.47;5225346;28;20033;-77
2021/03/07 04:28:07;;;;;;;6.25;2.30;;;;;;;3.60;88.10;101698.22;5224939;28;20025;-77
2021/03/07 04:30:38;;;;;;;7.85;2.10;;;;;;;3.58;87.20;101695.63;5207447;28;20035;-77
2021/03/07 04:33:09;;;;;;;6.38;2.05;;;;;;;3.48;87.65;101691.19;5224976;28;20029;-77
2021/03/07 04:35:40;;;;;;;7.20;1.90;;;;;;;3.54;87.69;101696.44;5224895;28;20075;-77
2021/03/07 04:38:11;;;;;;;7.60;2.05;;;;;;;3.43;88.26;101691.16;5224355;28;20418;-77
2021/03/07 04:40:41;;;;;;;4.50;2.28;;;;;;;3.47;88.27;101695.50;5229914;28;20020;-77
2021/03/07 04:43:12;;;;;;;6.82;2.17;;;;;;;3.43;88.75;101688.59;5235322;28;20108;-77
2021/03/07 04:45:42;;;;;;;4.32;2.03;;;;;;;3.44;88.97;101695.47;5224655;28;20021;-77
2021/03/07 04:48:12;;;;;;;3.63;1.88;;;;;;;3.36;88.97;101691.94;5224613;28;20108;-77
2021/03/07 04:50:43;;;;;;;5.97;2.17;;;;;;;3.41;89.41;101679.94;5224665;28;20021;-77
2021/03/07 04:53:13;;;;;;;5.07;2.03;;;;;;;3.44;89.60;101684.25;5225036;28;20063;-77
2021/03/07 04:55:43;;;;;;;7.72;2.17;;;;;;;3.45;89.29;101680.81;5224985;28;20053;-77
2021/03/07 04:58:14;;;;;;;9.07;2.03;;;;;;;3.39;88.85;101676.47;5224661;28;20032;-77
2021/03/07 05:00:44;;;;;;;6.38;2.00;;;;;;;3.30;88.75;101680.66;5224535;28;20097;-77
2021/03/07 05:03:14;;;;;;;6.47;2.20;;;;;;;3.38;88.98;101666.97;5224520;28;20021;-77
2021/03/07 05:05:47;;;;;;;4.63;2.00;;;;;;;3.31;89.22;101657.44;5224674;28;20061;-77
2021/03/07 05:08:19;;;;;;;8.35;2.20;;;;;;;3.30;88.98;101675.50;5227720;28;20467;-77
2021/03/07 05:10:49;;;;;;;7.65;1.95;;;;;;;3.17;89.06;101668.47;5216354;28;20152;-77
2021/03/07 05:13:20;;;;;;;7.03;1.98;;;;;;;3.08;89.22;101666.66;5219355;28;20112;-77
2021/03/07 05:15:50;;;;;;;5.30;2.10;;;;;;;3.18;89.14;101671.06;5224171;28;20074;-77
2021/03/07 05:18:21;;;;;;;6.80;2.17;;;;;;;3.16;89.15;101664.16;5224418;28;20029;-77
2021/03/07 05:20:52;;;;;;;3.92;2.03;;;;;;;3.29;89.05;101666.00;5224210;28;20032;-76
2021/03/07 05:23:22;;;;;;;5.85;1.70;;;;;;;3.27;88.62;101659.97;5222965;28;20380;-77
2021/03/07 05:25:52;;;;;;;6.28;1.88;;;;;;;3.27;88.38;101655.69;5223661;28;20025;-77
2021/03/07 05:28:23;;;;;;;4.18;1.70;;;;;;;3.16;87.76;101653.84;5223186;28;20029;-77
2021/03/07 05:30:53;;;;;;;4.60;1.73;;;;;;;3.20;87.70;101640.09;5224024;28;20060;-77
2021/03/07 05:33:23;;;;;;;5.80;2.10;;;;;;;3.07;87.36;101649.44;5224013;28;20074;-76
2021/03/07 05:35:53;;;;;;;3.47;1.60;;;;;;;3.02;88.19;101650.22;5220282;28;20017;-76
2021/03/07 05:38:24;;;;;;;6.07;1.88;;;;;;;3.18;87.96;101649.53;5220311;28;20059;-77
2021/03/07 05:40:54;;;;;;;4.85;2.05;;;;;;;3.19;88.21;101652.13;5217602;28;20386;-77
2021/03/07 05:43:25;;;;;;;4.55;1.90;;;;;;;3.24;88.38;101639.28;5219452;28;20071;-77
2021/03/07 05:45:55;;;;;;;4.65;2.00;;;;;;;3.19;87.73;101646.97;5220251;28;20057;-77
2021/03/07 05:48:29;;;;;;;3.75;1.75;;;;;;;3.16;87.83;101635.75;5222705;28;20028;-77
2021/03/07 05:51:00;;;;;;;4.97;2.08;;;;;;;3.14;88.42;101632.25;5220150;28;20025;-77
2021/03/07 05:53:31;;;;;;;5.55;1.83;;;;;;;3.06;88.27;101644.22;5212177;28;20048;-77
2021/03/07 05:56:02;;;;;;;6.90;2.05;;;;;;;3.16;88.04;101644.34;5213730;28;20051;-77
2021/03/07 05:58:32;;;;;;;4.28;1.90;;;;;;;3.15;88.26;101640.03;5214296;28;20025;-77
2021/03/07 06:01:03;;;;;;;11.77;2.20;;;;;;;3.25;87.79;101641.00;5222416;28;20078;-77
2021/03/07 06:03:34;;;;;;;7.22;2.30;;;;;;;3.22;87.53;101640.97;5211727;28;20043;-76
2021/03/07 06:06:04;;;;;;;8.88;2.20;;;;;;;3.23;87.91;101648.72;5212696;28;20028;-77
2021/03/07 06:08:35;;;;;;;5.82;2.10;;;;;;;3.06;87.62;101651.97;5223696;28;20317;-77
2021/03/07 06:11:05;;;;;;;6.82;2.00;;;;;;;3.09;87.46;101650.31;5220649;28;20528;-77
2021/03/07 06:13:40;;;;;;;6.03;2.30;;;;;;;3.16;86.97;101640.91;5200764;28;20108;-77
2021/03/07 06:16:12;;;;;;;7.45;2.20;;;;;;;3.22;87.97;101640.97;5219749;28;20021;-77
2021/03/07 06:18:44;;;;;;;6.05;2.25;;;;;;;3.11;88.07;101637.41;5211954;28;20034;-77
2021/03/07 06:21:31;;;;;;;6.57;2.42;;;;;;;3.10;87.62;101638.25;5210420;28;20499;-77
2021/03/07 06:24:02;;;;;;;10.27;2.40;;;;;;;3.19;87.45;101636.63;5216290;28;20032;-76
2021/03/07 06:26:32;;;;;;;6.85;2.40;;;;;;;3.27;87.82;101634.13;5219598;28;20021;-77
2021/03/07 06:29:11;;;;;;;5.60;2.05;;;;;;;3.25;88.26;101641.00;5210784;28;20103;-77
2021/03/07 06:31:41;;;;;;;6.03;2.13;;;;;;;3.22;88.86;101643.56;5213233;28;20483;-77
2021/03/07 06:34:13;;;;;;;5.28;2.10;;;;;;;3.40;87.70;101638.59;5211619;28;20025;-77
2021/03/07 06:36:43;;;;;;;7.78;2.17;;;;;;;3.20;88.01;101638.38;5215628;28;20037;-77
2021/03/07 06:39:14;;;;;;;5.05;1.73;;;;;;;3.40;87.66;101636.84;5221181;28;20033;-77
2021/03/07 06:41:45;;;;;;;9.18;3.25;;;;;;;3.42;86.84;101631.72;5220559;28;20025;-77
2021/03/07 06:44:17;;;;;;;6.75;2.45;;;;;;;3.27;86.92;101631.56;5223326;28;20098;-77
2021/03/07 06:46:48;;;;;;;5.78;2.00;;;;;;;3.37;87.07;101636.81;5210044;28;20017;-77
2021/03/07 06:49:28;;;;;;;9.82;2.63;;;;;;;3.55;86.59;101643.91;5215253;28;20770;-76
2021/03/07 06:52:19;;;;;;;5.05;2.10;;;;;;;3.35;86.31;101632.50;5216295;28;20054;-77
2021/03/07 06:55:06;;;;;;;7.28;2.70;;;;;;;3.35;86.48;101640.25;5221530;28;20029;-77
2021/03/07 06:57:36;;;;;;;5.50;2.60;;;;;;;3.30;86.50;101647.97;5212239;28;20047;-77
2021/03/07 07:00:07;;;;;;;4.97;2.60;;;;;;;3.27;87.14;101641.88;5211347;28;20100;-77
2021/03/07 07:02:37;;;;;;;6.22;2.30;;;;;;;3.39;87.20;101648.03;5215270;28;20024;-77
2021/03/07 07:05:08;;;;;;;8.13;2.47;;;;;;;3.53;87.11;101645.63;5224857;28;20021;-77
2021/03/07 07:07:48;;;;;;;6.15;2.30;;;;;;;3.50;86.14;101648.19;5223034;28;20025;-77
2021/03/07 07:10:18;;;;;;;5.45;2.40;;;;;;;3.70;85.92;101639.75;5215552;28;20054;-77
2021/03/07 07:12:48;;;;;;;5.28;2.15;;;;;;;3.70;85.59;101640.63;5229909;28;20040;-77
2021/03/07 07:15:19;;;;;;;6.32;2.50;;;;;;;3.43;85.46;101641.19;5220663;28;20025;-76
2021/03/07 07:17:49;;;;;;;6.32;2.28;;;;;;;3.48;85.12;101642.97;5212172;28;20502;-77
2021/03/07 07:20:19;;;;;;;5.85;2.47;;;;;;;3.64;84.93;101637.97;5213488;28;20029;-77
2021/03/07 07:22:50;;;;;;;10.50;2.60;;;;;;;3.66;85.05;101636.28;5218931;28;20074;-76
2021/03/07 07:25:20;;;;;;;9.13;2.72;;;;;;;3.59;84.52;101633.63;5218445;28;20135;-77
2021/03/07 07:27:50;;;;;;;8.38;2.63;;;;;;;3.68;84.58;101637.16;5219253;28;20017;-77
2021/03/07 07:30:21;;;;;;;9.23;2.75;;;;;;;3.77;84.66;101629.47;5218941;28;20082;-77
2021/03/07 07:32:51;;;;;;;8.27;3.20;;;;;;;3.70;86.52;101629.41;5194486;28;20483;-77
2021/03/07 07:35:25;;;;;;;7.60;3.60;;;;;;;3.81;88.00;101620.88;5217574;28;20021;-77
2021/03/07 07:38:01;;;;;;;8.15;3.50;;;;;;;3.59;89.02;101621.56;5223287;28;20568;-77
2021/03/07 07:40:42;;;;;;;8.85;3.40;;;;;;;3.91;88.15;101620.09;5218503;28;20047;-77
2021/03/07 07:43:13;;;;;;;7.28;3.60;;;;;;;3.76;89.20;101630.31;5229135;28;20087;-77
2021/03/07 07:45:43;;;;;;;9.85;3.45;;;;;;;3.93;89.26;101618.41;5215530;28;20052;-77
2021/03/07 07:48:33;;;;;;;7.35;3.28;;;;;;;4.07;88.48;101619.38;5213508;28;20017;-77
2021/03/07 07:51:29;;;;;;;12.02;3.63;;;;;;;3.96;88.85;101615.84;5215677;28;20029;-77
2021/03/07 07:54:00;;;;;;;10.15;3.97;;;;;;;4.01;88.82;101614.16;5222235;28;20044;-77
2021/03/07 07:56:39;;;;;;;11.20;5.13;;;;;;;3.98;88.53;101619.28;5224432;28;20497;-77
2021/03/07 07:59:13;;;;;;;12.93;5.20;;;;;;;3.96;88.87;101613.25;5220663;28;20030;-77
2021/03/07 08:01:56;;;;;;;8.00;3.65;;;;;;;4.12;87.97;101617.69;5214750;28;20075;-77
2021/03/07 08:04:26;;;;;;;7.80;3.40;;;;;;;4.09;87.82;101616.81;5215802;28;20357;-77
2021/03/07 08:06:59;;;;;;;8.73;3.90;;;;;;;3.85;87.96;101619.19;5234598;28;20028;-77
2021/03/07 08:09:33;;;;;;;9.05;4.00;;;;;;;3.77;87.78;101615.69;5216826;28;20717;-77
2021/03/07 08:12:41;;;;;;;9.70;3.78;;;;;;;3.86;87.70;101619.22;5236327;28;20028;-77
2021/03/07 08:15:24;;;;;;;11.90;3.70;;;;;;;4.04;87.07;101609.00;5230688;28;20045;-77
2021/03/07 08:17:56;;;;;;;7.72;4.07;;;;;;;4.15;87.13;101609.09;5234896;28;20027;-77
2021/03/07 08:20:39;;;;;;;11.05;3.78;;;;;;;4.25;86.12;101605.69;5231456;28;20027;-77
2021/03/07 08:23:11;;;;;;;8.07;3.65;;;;;;;4.14;85.08;101615.13;5226605;28;20036;-77
2021/03/07 08:25:47;;;;;;;8.38;3.30;;;;;;;4.24;85.48;101602.25;5228706;28;20130;-77
2021/03/07 08:28:26;;;;;;;8.52;3.53;;;;;;;4.19;84.49;101601.38;5213738;28;20029;-77
2021/03/07 08:30:59;;;;;;;8.38;3.10;;;;;;;4.12;84.21;101601.31;5223615;28;20117;-77
2021/03/07 08:33:31;;;;;;;10.40;3.25;;;;;;;4.01;84.23;101606.41;5233023;28;20021;-77
2021/03/07 08:36:16;;;;;;;7.45;3.00;;;;;;;4.01;84.03;101592.59;5233116;28;20409;-77
2021/03/07 08:38:53;;;;;;;8.00;3.25;;;;;;;3.89;83.85;101588.22;5229849;28;20100;-77
2021/03/07 08:41:46;;;;;;;4.47;2.70;;;;;;;3.85;83.28;101588.16;5233130;28;20035;-77
2021/03/07 08:44:16;;;;;;;6.50;2.85;;;;;;;4.02;82.29;101591.75;5228402;28;20037;-77
2021/03/07 08:46:47;;;;;;;9.60;2.20;;;;;;;4.22;80.59;101584.97;5214224;28;20032;-77
2021/03/07 08:49:24;;;;;;;6.07;2.30;;;;;;;4.28;80.42;101583.28;5207044;28;20395;-76
2021/03/07 08:52:00;;;;;;;4.03;2.05;;;;;;;4.31;79.45;101588.47;5204502;28;20561;-77
2021/03/07 08:54:32;;;;;;;7.57;2.67;;;;;;;4.40;79.92;101580.78;5204388;28;20448;-77
2021/03/07 08:57:06;;;;;;;7.55;2.50;;;;;;;4.42;78.57;101580.78;5221497;28;20067;-77
2021/03/07 08:59:36;;;;;;;5.15;2.38;;;;;;;4.54;78.95;101581.72;5219184;28;20052;-77
2021/03/07 09:02:06;;;;;;;5.47;2.22;;;;;;;4.46;78.34;101580.81;5217509;28;20032;-77
2021/03/07 09:04:38;;;;;;;5.70;2.13;;;;;;;4.36;78.46;101581.63;5233951;28;20023;-77
2021/03/07 09:07:08;;;;;;;4.07;2.10;;;;;;;4.50;77.74;101574.78;5237818;28;20059;-77
2021/03/07 09:09:43;;;;;;;4.13;2.20;;;;;;;4.60;76.88;101560.19;5230148;28;20475;-77
2021/03/07 09:12:17;;;;;;;4.00;2.03;;;;;;;4.50;76.91;101551.47;5240663;28;20182;-77
2021/03/07 09:14:47;;;;;;;5.22;2.10;;;;;;;4.56;77.46;101555.81;5234781;28;20034;-77
2021/03/07 09:17:20;;;;;;;5.90;1.98;;;;;;;4.53;76.46;101554.13;5244942;28;20024;-77
2021/03/07 09:19:50;;;;;;;6.63;2.40;;;;;;;4.41;77.18;101558.34;5245136;28;20032;-77
2021/03/07 09:22:26;;;;;;;5.93;2.10;;;;;;;4.43;76.64;101560.09;5255260;22;20316;-79
2021/03/07 09:24:58;;;;;;;4.13;1.83;;;;;;;4.77;75.89;101561.97;5230652;28;20151;-79
2021/03/07 09:27:31;;;;;;;5.55;1.90;;;;;;;4.67;75.27;101557.59;5207603;28;20020;-79
2021/03/07 09:30:07;;;;;;;4.43;1.83;;;;;;;4.74;75.52;101558.47;5215532;28;20471;-79
2021/03/07 09:32:39;;;;;;;;;;;;;;;4.75;74.71;101549.84;5207429;28;20112;-79
2021/03/07 09:35:34;;;;;;;4.53;2.00;;;;;;;4.74;73.76;101553.31;5193186;28;19984;-79
2021/03/07 09:38:07;;;;;;;3.47;2.13;;;;;;;4.77;74.08;101543.00;5185138;28;20446;-79
2021/03/07 09:40:40;;;;;;;5.43;2.13;;;;;;;4.78;72.74;101535.19;5200955;28;20545;-79
2021/03/07 09:43:14;;;;;;;4.05;1.63;;;;;;;4.89;72.15;101533.53;5202601;28;20044;-79
2021/03/07 09:45:50;;;;;;;4.80;2.10;;;;;;;4.89;71.72;101532.66;5204059;28;20025;-79
2021/03/07 09:48:26;;;;;;;3.97;1.88;;;;;;;5.00;71.56;101533.53;5194420;28;20061;-79
2021/03/07 09:50:57;;;;;;;5.45;2.05;;;;;;;5.03;71.40;101529.25;5200255;28;20040;-79
2021/03/07 09:53:28;;;;;;;7.68;3.50;;;;;;;5.13;70.19;101536.16;5199035;28;20021;-79
2021/03/07 09:55:59;;;;;;;6.28;3.15;;;;;;;5.19;70.39;101532.72;5180909;28;20024;-79
2021/03/07 09:58:38;;;;;;;6.43;2.42;;;;;;;5.17;70.24;101529.25;5195708;28;20022;-79
2021/03/07 10:01:08;;;;;;;5.05;2.00;;;;;;;5.13;68.99;101527.53;5182921;28;20531;-79
2021/03/07 10:03:39;;;;;;;7.70;3.97;;;;;;;5.21;69.09;101526.69;5196874;28;20025;-79
2021/03/07 10:06:20;;;;;;;6.28;3.45;;;;;;;5.24;70.24;101520.63;5192430;28;20036;-79
2021/03/07 10:09:09;;;;;;;7.22;2.47;;;;;;;4.88;72.30;101526.63;5195200;28;20028;-79
2021/03/07 10:11:39;;;;;;;7.50;3.00;;;;;;;5.06;73.14;101530.97;5185485;28;20017;-79
2021/03/07 10:14:10;;;;;;;5.05;2.90;;;;;;;4.94;74.11;101534.38;5202625;28;20052;-79
2021/03/07 10:16:40;;;;;;;6.72;3.05;;;;;;;5.16;73.55;101541.34;5184472;28;20391;-79
2021/03/07 10:19:14;;;;;;;5.80;2.20;;;;;;;4.92;72.78;101530.94;5182600;28;20112;-79
2021/03/07 10:21:45;;;;;;;6.53;2.83;;;;;;;4.90;73.45;101531.78;5196204;28;20032;-79
2021/03/07 10:24:18;;;;;;;5.20;2.40;;;;;;;4.92;73.02;101530.06;5195259;28;20021;-79
2021/03/07 10:26:50;;;;;;;6.25;2.47;;;;;;;4.95;73.01;101527.50;5181074;28;20025;-79
2021/03/07 10:29:34;;;;;;;5.90;1.95;;;;;;;4.81;73.15;101529.19;5203388;28;20018;-79
2021/03/07 10:32:06;;;;;;;4.53;2.10;;;;;;;4.84;73.27;101527.44;5206724;28;20028;-79
2021/03/07 10:34:45;;;;;;;6.38;2.60;;;;;;;4.90;73.06;101527.47;5202621;28;20029;-79
2021/03/07 10:37:37;;;;;;;10.40;5.50;;;;;;;4.87;72.36;101519.72;5183644;28;20550;-79
2021/03/07 10:40:34;;;;;;;13.52;3.00;;;;;;;4.93;73.11;101518.84;5181717;28;20480;-79
2021/03/07 10:43:04;;;;;;;4.45;2.22;;;;;;;4.98;73.02;101512.81;5173440;28;20030;-79
2021/03/07 10:45:38;;;;;;;6.15;2.40;;;;;;;4.96;72.07;101511.09;5198668;28;20132;-79
2021/03/07 10:48:09;;;;;;;5.45;2.25;;;;;;;4.91;71.55;101511.09;5201318;28;20060;-79
2021/03/07 10:50:49;;;;;;;5.25;2.30;;;;;;;4.89;71.43;101509.34;5185765;28;20021;-79
2021/03/07 10:53:19;;;;;;;11.23;3.63;;;;;;;5.03;70.69;101510.22;5184448;28;20033;-79
2021/03/07 10:55:53;;;;;;;5.80;3.35;;;;;;;5.18;71.03;101502.47;5178170;28;20410;-79
2021/03/07 10:58:24;;;;;;;6.32;3.67;;;;;;;5.38;70.89;101511.13;5179573;28;20029;-79
2021/03/07 11:00:56;;;;;;;7.60;3.85;;;;;;;5.26;70.53;101514.59;5201584;28;20110;-79
2021/03/07 11:03:27;;;;;;;9.77;3.80;;;;;;;5.10;70.82;101505.06;5202400;28;20025;-79
2021/03/07 11:05:57;;;;;;;6.05;2.20;;;;;;;5.19;71.10;101502.47;5202913;28;20075;-79
2021/03/07 11:08:27;;;;;;;7.15;2.45;;;;;;;5.04;71.25;101502.47;5186261;28;20053;-80
2021/03/07 11:10:57;;;;;;;9.38;5.30;;;;;;;5.17;70.92;101504.19;5195991;28;20390;-79
2021/03/07 11:13:28;;;;;;;9.00;3.00;;;;;;;5.05;70.08;101503.31;5198019;28;20044;-79
2021/03/07 11:15:59;;;;;;;8.32;2.97;;;;;;;4.91;70.10;101500.72;5203544;28;20037;-79
2021/03/07 11:18:29;;;;;;;5.40;2.80;;;;;;;5.04;70.38;101497.28;5203979;28;20513;-79
2021/03/07 11:21:00;;;;;;;9.50;3.00;;;;;;;5.07;70.08;101497.28;5199506;28;20060;-79
2021/03/07 11:23:30;;;;;;;7.72;2.60;;;;;;;5.14;70.73;101493.00;5205268;28;20075;-79
2021/03/07 11:26:02;;;;;;;9.23;3.10;;;;;;;5.14;70.91;101486.06;5198071;28;20072;-79
2021/03/07 11:28:32;;;;;;;4.50;2.53;;;;;;;5.02;70.97;101485.19;5194313;28;20120;-79
2021/03/07 11:31:02;;;;;;;13.38;4.15;;;;;;;5.18;71.07;101480.00;5200312;28;20044;-79
2021/03/07 11:33:33;;;;;;;9.82;4.35;;;;;;;5.13;71.33;101476.56;5199080;28;20498;-79
2021/03/07 11:36:04;;;;;;;5.75;3.00;;;;;;;5.10;70.98;101480.88;5181058;28;20079;-79
2021/03/07 11:38:34;;;;;;;6.40;2.92;;;;;;;5.14;71.55;101480.03;5180606;28;20053;-79
2021/03/07 11:41:04;;;;;;;6.78;3.60;;;;;;;5.18;71.01;101474.81;5177942;28;20033;-79
2021/03/07 11:43:38;;;;;;;9.32;3.50;;;;;;;5.08;71.01;101478.28;5176692;28;20037;-79
2021/03/07 11:46:08;;;;;;;5.38;2.85;;;;;;;4.94;70.71;101479.16;5148841;28;20043;-79
2021/03/07 11:48:48;;;;;;;7.78;3.40;;;;;;;4.99;71.21;101467.91;5198897;28;20025;-79
2021/03/07 11:51:34;;;;;;;6.13;3.00;;;;;;;5.02;71.59;101461.88;5175748;28;20120;-79
2021/03/07 11:54:05;;;;;;;12.27;5.85;;;;;;;5.20;70.43;101459.31;5175217;28;20462;-79
2021/03/07 11:56:45;;;;;;;10.48;5.00;;;;;;;4.99;70.56;101454.97;5180845;28;20029;-79